sensor_id;sensor_type;location;lat;lon;timestamp;P1;durP1;ratioP1;P2;durP2;ratioP2
51602;SDS011;37954;51.980;5.850;2023-07-28T00:04:07;6.60;;;5.80;;
51602;SDS011;37954;51.980;5.850;2023-07-28T00:08:21;6.25;;;5.65;;
51602;SDS011;37954;51.980;5.850;2023-07-28T00:12:33;6.25;;;5.65;;
51602;SDS011;37954;51.980;5.850;2023-07-28T00:16:45;7.63;;;6.18;;
51602;SDS011;37954;51.980;5.850;2023-07-28T00:20:57;6.30;;;5.70;;
51602;SDS011;37954;51.980;5.850;2023-07-28T00:25:09;7.13;;;6.45;;
51602;SDS011;37954;51.980;5.850;2023-07-28T00:29:21;6.70;;;6.00;;
51602;SDS011;37954;51.980;5.850;2023-07-28T00:33:32;8.05;;;6.38;;
51602;SDS011;37954;51.980;5.850;2023-07-28T00:37:44;6.40;;;5.80;;
51602;SDS011;37954;51.980;5.850;2023-07-28T00:41:56;7.00;;;6.28;;
51602;SDS011;37954;51.980;5.850;2023-07-28T00:46:08;7.95;;;6.90;;
51602;SDS011;37954;51.980;5.850;2023-07-28T00:50:21;11.18;;;7.40;;
51602;SDS011;37954;51.980;5.850;2023-07-28T00:54:33;8.60;;;6.70;;
51602;SDS011;37954;51.980;5.850;2023-07-28T00:58:45;7.03;;;6.32;;
51602;SDS011;37954;51.980;5.850;2023-07-28T01:02:57;6.90;;;6.20;;
51602;SDS011;37954;51.980;5.850;2023-07-28T01:07:10;7.07;;;6.38;;
51602;SDS011;37954;51.980;5.850;2023-07-28T01:11:27;7.45;;;6.55;;
51602;SDS011;37954;51.980;5.850;2023-07-28T01:15:40;10.32;;;6.50;;
51602;SDS011;37954;51.980;5.850;2023-07-28T01:19:51;8.50;;;6.65;;
51602;SDS011;37954;51.980;5.850;2023-07-28T01:28:34;12.00;;;7.10;;
51602;SDS011;37954;51.980;5.850;2023-07-28T01:32:47;7.65;;;6.47;;
51602;SDS011;37954;51.980;5.850;2023-07-28T01:37:00;7.38;;;6.53;;
51602;SDS011;37954;51.980;5.850;2023-07-28T01:41:12;9.32;;;6.57;;
51602;SDS011;37954;51.980;5.850;2023-07-28T01:45:24;7.95;;;7.15;;
51602;SDS011;37954;51.980;5.850;2023-07-28T01:49:35;8.93;;;7.53;;
51602;SDS011;37954;51.980;5.850;2023-07-28T01:53:47;10.48;;;6.82;;
51602;SDS011;37954;51.980;5.850;2023-07-28T01:57:59;8.85;;;7.38;;
51602;SDS011;37954;51.980;5.850;2023-07-28T02:02:12;7.80;;;6.88;;
51602;SDS011;37954;51.980;5.850;2023-07-28T02:06:24;9.68;;;7.82;;
51602;SDS011;37954;51.980;5.850;2023-07-28T02:10:36;8.43;;;7.05;;
51602;SDS011;37954;51.980;5.850;2023-07-28T02:14:48;8.20;;;7.22;;
51602;SDS011;37954;51.980;5.850;2023-07-28T02:19:00;9.25;;;7.60;;
51602;SDS011;37954;51.980;5.850;2023-07-28T02:23:12;10.43;;;8.10;;
51602;SDS011;37954;51.980;5.850;2023-07-28T02:27:25;10.70;;;8.93;;
51602;SDS011;37954;51.980;5.850;2023-07-28T02:31:39;12.43;;;9.52;;
51602;SDS011;37954;51.980;5.850;2023-07-28T02:35:50;12.23;;;9.43;;
51602;SDS011;37954;51.980;5.850;2023-07-28T02:40:02;12.30;;;9.48;;
51602;SDS011;37954;51.980;5.850;2023-07-28T02:44:15;10.63;;;9.52;;
51602;SDS011;37954;51.980;5.850;2023-07-28T02:48:26;15.40;;;9.55;;
51602;SDS011;37954;51.980;5.850;2023-07-28T02:52:38;15.68;;;11.13;;
51602;SDS011;37954;51.980;5.850;2023-07-28T02:56:50;19.05;;;11.25;;
51602;SDS011;37954;51.980;5.850;2023-07-28T03:01:02;14.45;;;10.68;;
51602;SDS011;37954;51.980;5.850;2023-07-28T03:05:20;15.32;;;10.95;;
51602;SDS011;37954;51.980;5.850;2023-07-28T03:09:55;16.88;;;10.93;;
51602;SDS011;37954;51.980;5.850;2023-07-28T03:14:07;14.75;;;11.13;;
51602;SDS011;37954;51.980;5.850;2023-07-28T03:18:19;19.02;;;11.95;;
51602;SDS011;37954;51.980;5.850;2023-07-28T03:22:30;17.83;;;11.75;;
51602;SDS011;37954;51.980;5.850;2023-07-28T03:26:43;19.27;;;12.52;;
51602;SDS011;37954;51.980;5.850;2023-07-28T03:30:54;18.13;;;12.30;;
51602;SDS011;37954;51.980;5.850;2023-07-28T03:35:06;20.88;;;12.43;;
51602;SDS011;37954;51.980;5.850;2023-07-28T03:39:24;18.58;;;12.75;;
51602;SDS011;37954;51.980;5.850;2023-07-28T03:43:36;16.40;;;12.35;;
51602;SDS011;37954;51.980;5.850;2023-07-28T03:47:47;17.25;;;12.43;;
51602;SDS011;37954;51.980;5.850;2023-07-28T03:51:59;24.40;;;13.18;;
51602;SDS011;37954;51.980;5.850;2023-07-28T03:56:11;22.55;;;13.45;;
51602;SDS011;37954;51.980;5.850;2023-07-28T04:00:23;19.70;;;13.80;;
51602;SDS011;37954;51.980;5.850;2023-07-28T04:04:35;20.88;;;13.95;;
51602;SDS011;37954;51.980;5.850;2023-07-28T04:08:48;26.38;;;14.27;;
51602;SDS011;37954;51.980;5.850;2023-07-28T04:12:59;25.08;;;14.65;;
51602;SDS011;37954;51.980;5.850;2023-07-28T04:17:11;21.20;;;13.68;;
51602;SDS011;37954;51.980;5.850;2023-07-28T04:21:23;22.40;;;13.88;;
51602;SDS011;37954;51.980;5.850;2023-07-28T04:25:35;22.13;;;13.38;;
51602;SDS011;37954;51.980;5.850;2023-07-28T04:29:47;19.05;;;13.63;;
51602;SDS011;37954;51.980;5.850;2023-07-28T04:34:03;25.00;;;14.70;;
51602;SDS011;37954;51.980;5.850;2023-07-28T04:38:34;21.15;;;13.93;;
51602;SDS011;37954;51.980;5.850;2023-07-28T04:42:46;26.77;;;15.52;;
51602;SDS011;37954;51.980;5.850;2023-07-28T04:46:58;27.67;;;15.15;;
51602;SDS011;37954;51.980;5.850;2023-07-28T04:51:10;23.95;;;14.60;;
51602;SDS011;37954;51.980;5.850;2023-07-28T04:55:40;28.10;;;14.90;;
51602;SDS011;37954;51.980;5.850;2023-07-28T04:59:52;23.60;;;14.30;;
51602;SDS011;37954;51.980;5.850;2023-07-28T05:04:04;24.77;;;14.90;;
51602;SDS011;37954;51.980;5.850;2023-07-28T05:08:16;22.00;;;15.60;;
51602;SDS011;37954;51.980;5.850;2023-07-28T05:12:28;22.50;;;15.50;;
51602;SDS011;37954;51.980;5.850;2023-07-28T05:16:39;31.30;;;17.55;;
51602;SDS011;37954;51.980;5.850;2023-07-28T05:20:55;29.83;;;17.05;;
51602;SDS011;37954;51.980;5.850;2023-07-28T05:25:06;23.30;;;16.15;;
51602;SDS011;37954;51.980;5.850;2023-07-28T05:29:22;28.40;;;17.05;;
51602;SDS011;37954;51.980;5.850;2023-07-28T05:33:33;31.00;;;16.25;;
51602;SDS011;37954;51.980;5.850;2023-07-28T05:37:47;27.58;;;17.80;;
51602;SDS011;37954;51.980;5.850;2023-07-28T05:41:59;26.27;;;16.80;;
51602;SDS011;37954;51.980;5.850;2023-07-28T05:46:11;26.65;;;16.38;;
51602;SDS011;37954;51.980;5.850;2023-07-28T05:50:23;27.55;;;17.08;;
51602;SDS011;37954;51.980;5.850;2023-07-28T05:54:35;25.25;;;16.05;;
51602;SDS011;37954;51.980;5.850;2023-07-28T05:58:47;22.50;;;15.77;;
51602;SDS011;37954;51.980;5.850;2023-07-28T06:03:00;23.05;;;14.20;;
51602;SDS011;37954;51.980;5.850;2023-07-28T06:07:35;19.25;;;14.20;;
51602;SDS011;37954;51.980;5.850;2023-07-28T06:11:46;20.00;;;14.43;;
51602;SDS011;37954;51.980;5.850;2023-07-28T06:15:59;21.45;;;14.43;;
51602;SDS011;37954;51.980;5.850;2023-07-28T06:20:10;21.30;;;14.52;;
51602;SDS011;37954;51.980;5.850;2023-07-28T06:24:22;21.38;;;14.35;;
51602;SDS011;37954;51.980;5.850;2023-07-28T06:28:34;21.85;;;13.27;;
51602;SDS011;37954;51.980;5.850;2023-07-28T06:32:47;20.05;;;13.52;;
51602;SDS011;37954;51.980;5.850;2023-07-28T06:36:58;23.40;;;14.27;;
51602;SDS011;37954;51.980;5.850;2023-07-28T06:41:10;21.60;;;13.52;;
51602;SDS011;37954;51.980;5.850;2023-07-28T06:45:22;18.88;;;13.68;;
51602;SDS011;37954;51.980;5.850;2023-07-28T06:49:34;22.42;;;14.60;;
51602;SDS011;37954;51.980;5.850;2023-07-28T06:53:45;20.65;;;15.07;;
51602;SDS011;37954;51.980;5.850;2023-07-28T06:57:57;27.05;;;15.63;;
51602;SDS011;37954;51.980;5.850;2023-07-28T07:02:09;23.63;;;15.20;;
51602;SDS011;37954;51.980;5.850;2023-07-28T07:06:22;21.92;;;14.38;;
51602;SDS011;37954;51.980;5.850;2023-07-28T07:10:34;26.73;;;14.68;;
51602;SDS011;37954;51.980;5.850;2023-07-28T07:14:45;23.27;;;15.07;;
51602;SDS011;37954;51.980;5.850;2023-07-28T07:18:57;22.33;;;13.85;;
51602;SDS011;37954;51.980;5.850;2023-07-28T07:23:09;22.77;;;14.00;;
51602;SDS011;37954;51.980;5.850;2023-07-28T07:27:21;22.48;;;13.95;;
51602;SDS011;37954;51.980;5.850;2023-07-28T07:31:35;16.58;;;12.60;;
51602;SDS011;37954;51.980;5.850;2023-07-28T07:35:48;18.15;;;12.45;;
51602;SDS011;37954;51.980;5.850;2023-07-28T07:39:59;17.48;;;12.07;;
51602;SDS011;37954;51.980;5.850;2023-07-28T07:44:12;19.40;;;12.55;;
51602;SDS011;37954;51.980;5.850;2023-07-28T07:48:24;17.05;;;11.85;;
51602;SDS011;37954;51.980;5.850;2023-07-28T07:52:36;14.55;;;10.35;;
51602;SDS011;37954;51.980;5.850;2023-07-28T07:56:52;13.07;;;10.38;;
51602;SDS011;37954;51.980;5.850;2023-07-28T08:01:04;14.20;;;9.68;;
51602;SDS011;37954;51.980;5.850;2023-07-28T08:05:16;12.18;;;8.82;;
51602;SDS011;37954;51.980;5.850;2023-07-28T08:09:28;12.60;;;9.77;;
51602;SDS011;37954;51.980;5.850;2023-07-28T08:13:40;11.25;;;8.90;;
51602;SDS011;37954;51.980;5.850;2023-07-28T08:17:52;13.85;;;10.32;;
51602;SDS011;37954;51.980;5.850;2023-07-28T08:22:04;14.45;;;9.35;;
51602;SDS011;37954;51.980;5.850;2023-07-28T08:26:15;12.88;;;9.35;;
51602;SDS011;37954;51.980;5.850;2023-07-28T08:30:27;15.40;;;9.82;;
51602;SDS011;37954;51.980;5.850;2023-07-28T08:34:39;14.43;;;9.80;;
51602;SDS011;37954;51.980;5.850;2023-07-28T08:38:51;11.70;;;9.27;;
51602;SDS011;37954;51.980;5.850;2023-07-28T08:43:04;12.52;;;9.13;;
51602;SDS011;37954;51.980;5.850;2023-07-28T08:47:16;14.07;;;9.02;;
51602;SDS011;37954;51.980;5.850;2023-07-28T08:51:33;8.20;;;7.07;;
51602;SDS011;37954;51.980;5.850;2023-07-28T08:55:45;10.05;;;8.95;;
51602;SDS011;37954;51.980;5.850;2023-07-28T08:59:57;13.50;;;7.82;;
51602;SDS011;37954;51.980;5.850;2023-07-28T09:04:09;10.45;;;7.82;;
51602;SDS011;37954;51.980;5.850;2023-07-28T09:08:22;10.30;;;8.63;;
51602;SDS011;37954;51.980;5.850;2023-07-28T09:12:35;10.82;;;7.78;;
51602;SDS011;37954;51.980;5.850;2023-07-28T09:17:15;12.35;;;8.10;;
51602;SDS011;37954;51.980;5.850;2023-07-28T09:21:28;12.45;;;8.95;;
51602;SDS011;37954;51.980;5.850;2023-07-28T09:25:40;11.15;;;8.98;;
51602;SDS011;37954;51.980;5.850;2023-07-28T09:29:52;11.60;;;8.73;;
51602;SDS011;37954;51.980;5.850;2023-07-28T09:34:07;10.45;;;7.97;;
51602;SDS011;37954;51.980;5.850;2023-07-28T09:38:19;9.63;;;8.10;;
51602;SDS011;37954;51.980;5.850;2023-07-28T09:42:33;8.73;;;7.47;;
51602;SDS011;37954;51.980;5.850;2023-07-28T09:46:49;9.90;;;7.95;;
51602;SDS011;37954;51.980;5.850;2023-07-28T09:55:47;10.60;;;7.97;;
51602;SDS011;37954;51.980;5.850;2023-07-28T10:00:02;8.00;;;7.13;;
51602;SDS011;37954;51.980;5.850;2023-07-28T10:04:22;10.98;;;8.02;;
51602;SDS011;37954;51.980;5.850;2023-07-28T10:08:34;12.80;;;8.20;;
51602;SDS011;37954;51.980;5.850;2023-07-28T10:12:47;9.32;;;7.75;;
51602;SDS011;37954;51.980;5.850;2023-07-28T10:16:59;7.90;;;7.07;;
51602;SDS011;37954;51.980;5.850;2023-07-28T10:21:15;7.95;;;6.65;;
51602;SDS011;37954;51.980;5.850;2023-07-28T10:25:28;7.68;;;6.07;;
51602;SDS011;37954;51.980;5.850;2023-07-28T10:29:47;8.10;;;5.80;;
51602;SDS011;37954;51.980;5.850;2023-07-28T10:34:07;15.20;;;6.45;;
51602;SDS011;37954;51.980;5.850;2023-07-28T10:38:33;8.07;;;6.63;;
51602;SDS011;37954;51.980;5.850;2023-07-28T10:42:47;8.95;;;5.72;;
51602;SDS011;37954;51.980;5.850;2023-07-28T10:46:59;6.63;;;5.50;;
51602;SDS011;37954;51.980;5.850;2023-07-28T10:51:11;7.15;;;6.45;;
51602;SDS011;37954;51.980;5.850;2023-07-28T10:55:30;7.97;;;6.70;;
51602;SDS011;37954;51.980;5.850;2023-07-28T10:59:43;10.73;;;6.30;;
51602;SDS011;37954;51.980;5.850;2023-07-28T11:03:54;8.10;;;6.43;;
51602;SDS011;37954;51.980;5.850;2023-07-28T11:08:06;7.18;;;6.47;;
51602;SDS011;37954;51.980;5.850;2023-07-28T11:12:20;9.55;;;6.55;;
51602;SDS011;37954;51.980;5.850;2023-07-28T11:16:36;6.70;;;6.00;;
51602;SDS011;37954;51.980;5.850;2023-07-28T11:20:50;6.05;;;5.45;;
51602;SDS011;37954;51.980;5.850;2023-07-28T11:25:05;9.85;;;6.32;;
51602;SDS011;37954;51.980;5.850;2023-07-28T11:29:20;6.82;;;6.15;;
51602;SDS011;37954;51.980;5.850;2023-07-28T11:33:32;7.00;;;6.30;;
51602;SDS011;37954;51.980;5.850;2023-07-28T11:37:45;8.93;;;7.97;;
51602;SDS011;37954;51.980;5.850;2023-07-28T11:41:58;9.13;;;7.38;;
51602;SDS011;37954;51.980;5.850;2023-07-28T11:50:44;9.25;;;7.38;;
51602;SDS011;37954;51.980;5.850;2023-07-28T11:54:59;8.27;;;6.93;;
51602;SDS011;37954;51.980;5.850;2023-07-28T11:59:12;7.88;;;6.30;;
51602;SDS011;37954;51.980;5.850;2023-07-28T12:03:29;8.90;;;6.55;;
51602;SDS011;37954;51.980;5.850;2023-07-28T12:07:47;8.00;;;6.88;;
51602;SDS011;37954;51.980;5.850;2023-07-28T12:11:59;9.13;;;6.20;;
51602;SDS011;37954;51.980;5.850;2023-07-28T12:16:30;7.60;;;6.38;;
51602;SDS011;37954;51.980;5.850;2023-07-28T12:20:57;7.00;;;5.90;;
51602;SDS011;37954;51.980;5.850;2023-07-28T12:25:11;8.23;;;6.30;;
51602;SDS011;37954;51.980;5.850;2023-07-28T12:29:23;6.75;;;6.03;;
51602;SDS011;37954;51.980;5.850;2023-07-28T12:33:41;8.57;;;6.20;;
51602;SDS011;37954;51.980;5.850;2023-07-28T12:37:53;9.00;;;7.43;;
51602;SDS011;37954;51.980;5.850;2023-07-28T12:42:07;6.38;;;5.47;;
51602;SDS011;37954;51.980;5.850;2023-07-28T12:46:23;5.93;;;5.05;;
51602;SDS011;37954;51.980;5.850;2023-07-28T12:50:35;6.97;;;4.32;;
51602;SDS011;37954;51.980;5.850;2023-07-28T12:54:49;6.03;;;5.03;;
51602;SDS011;37954;51.980;5.850;2023-07-28T12:59:01;4.82;;;4.22;;
51602;SDS011;37954;51.980;5.850;2023-07-28T13:03:15;5.50;;;5.00;;
51602;SDS011;37954;51.980;5.850;2023-07-28T13:07:28;4.43;;;3.83;;
51602;SDS011;37954;51.980;5.850;2023-07-28T13:11:44;5.30;;;4.28;;
51602;SDS011;37954;51.980;5.850;2023-07-28T13:15:58;5.05;;;3.92;;
51602;SDS011;37954;51.980;5.850;2023-07-28T13:20:10;5.60;;;4.93;;
51602;SDS011;37954;51.980;5.850;2023-07-28T13:24:22;4.90;;;4.22;;
51602;SDS011;37954;51.980;5.850;2023-07-28T13:28:34;4.38;;;3.97;;
51602;SDS011;37954;51.980;5.850;2023-07-28T13:32:46;5.20;;;4.30;;
51602;SDS011;37954;51.980;5.850;2023-07-28T13:36:59;6.82;;;4.90;;
51602;SDS011;37954;51.980;5.850;2023-07-28T13:41:10;4.60;;;4.20;;
51602;SDS011;37954;51.980;5.850;2023-07-28T13:45:22;4.40;;;4.00;;
51602;SDS011;37954;51.980;5.850;2023-07-28T13:49:34;3.88;;;3.28;;
51602;SDS011;37954;51.980;5.850;2023-07-28T13:54:02;3.25;;;2.40;;
51602;SDS011;37954;51.980;5.850;2023-07-28T13:58:17;5.10;;;3.33;;
51602;SDS011;37954;51.980;5.850;2023-07-28T14:02:28;5.45;;;4.20;;
51602;SDS011;37954;51.980;5.850;2023-07-28T14:06:40;3.92;;;3.53;;
51602;SDS011;37954;51.980;5.850;2023-07-28T14:10:52;4.05;;;3.40;;
51602;SDS011;37954;51.980;5.850;2023-07-28T14:15:04;3.45;;;3.15;;
51602;SDS011;37954;51.980;5.850;2023-07-28T14:19:17;3.38;;;3.08;;
51602;SDS011;37954;51.980;5.850;2023-07-28T14:23:29;3.55;;;3.25;;
51602;SDS011;37954;51.980;5.850;2023-07-28T14:27:41;3.55;;;3.25;;
51602;SDS011;37954;51.980;5.850;2023-07-28T14:31:52;5.57;;;3.38;;
51602;SDS011;37954;51.980;5.850;2023-07-28T14:36:04;4.13;;;3.10;;
51602;SDS011;37954;51.980;5.850;2023-07-28T14:40:16;6.60;;;3.38;;
51602;SDS011;37954;51.980;5.850;2023-07-28T14:44:28;6.88;;;3.38;;
51602;SDS011;37954;51.980;5.850;2023-07-28T14:48:40;3.83;;;3.10;;
51602;SDS011;37954;51.980;5.850;2023-07-28T14:52:52;4.30;;;3.53;;
51602;SDS011;37954;51.980;5.850;2023-07-28T14:57:04;4.25;;;3.72;;
51602;SDS011;37954;51.980;5.850;2023-07-28T15:01:18;3.47;;;3.17;;
51602;SDS011;37954;51.980;5.850;2023-07-28T15:05:31;4.35;;;3.28;;
51602;SDS011;37954;51.980;5.850;2023-07-28T15:09:42;3.80;;;3.50;;
51602;SDS011;37954;51.980;5.850;2023-07-28T15:13:54;3.95;;;3.05;;
51602;SDS011;37954;51.980;5.850;2023-07-28T15:18:06;3.72;;;2.88;;
51602;SDS011;37954;51.980;5.850;2023-07-28T15:22:18;4.18;;;3.50;;
51602;SDS011;37954;51.980;5.850;2023-07-28T15:26:29;5.40;;;3.88;;
51602;SDS011;37954;51.980;5.850;2023-07-28T15:30:41;4.80;;;4.10;;
51602;SDS011;37954;51.980;5.850;2023-07-28T15:34:57;5.60;;;4.32;;
51602;SDS011;37954;51.980;5.850;2023-07-28T15:39:08;6.57;;;4.03;;
51602;SDS011;37954;51.980;5.850;2023-07-28T15:43:20;3.72;;;3.42;;
51602;SDS011;37954;51.980;5.850;2023-07-28T15:47:32;5.20;;;4.32;;
51602;SDS011;37954;51.980;5.850;2023-07-28T15:51:45;5.78;;;4.68;;
51602;SDS011;37954;51.980;5.850;2023-07-28T15:55:57;5.30;;;4.45;;
51602;SDS011;37954;51.980;5.850;2023-07-28T16:00:08;6.70;;;4.95;;
51602;SDS011;37954;51.980;5.850;2023-07-28T16:04:24;6.05;;;5.45;;
51602;SDS011;37954;51.980;5.850;2023-07-28T16:08:36;5.50;;;5.00;;
51602;SDS011;37954;51.980;5.850;2023-07-28T16:12:47;5.85;;;5.25;;
51602;SDS011;37954;51.980;5.850;2023-07-28T16:16:59;6.25;;;5.65;;
51602;SDS011;37954;51.980;5.850;2023-07-28T16:21:11;6.75;;;5.68;;
51602;SDS011;37954;51.980;5.850;2023-07-28T16:25:22;7.70;;;6.78;;
51602;SDS011;37954;51.980;5.850;2023-07-28T16:29:34;7.70;;;6.28;;
51602;SDS011;37954;51.980;5.850;2023-07-28T16:33:46;7.97;;;6.85;;
51602;SDS011;37954;51.980;5.850;2023-07-28T16:37:58;6.85;;;6.15;;
51602;SDS011;37954;51.980;5.850;2023-07-28T16:42:09;6.95;;;6.15;;
51602;SDS011;37954;51.980;5.850;2023-07-28T16:46:21;6.72;;;5.65;;
51602;SDS011;37954;51.980;5.850;2023-07-28T16:50:33;5.95;;;4.72;;
51602;SDS011;37954;51.980;5.850;2023-07-28T16:54:45;5.47;;;4.72;;
51602;SDS011;37954;51.980;5.850;2023-07-28T16:58:57;6.30;;;4.80;;
51602;SDS011;37954;51.980;5.850;2023-07-28T17:03:09;4.47;;;4.07;;
51602;SDS011;37954;51.980;5.850;2023-07-28T17:07:21;5.78;;;4.13;;
51602;SDS011;37954;51.980;5.850;2023-07-28T17:11:33;9.95;;;5.03;;
51602;SDS011;37954;51.980;5.850;2023-07-28T17:15:45;5.75;;;4.68;;
51602;SDS011;37954;51.980;5.850;2023-07-28T17:19:57;4.53;;;3.90;;
51602;SDS011;37954;51.980;5.850;2023-07-28T17:24:09;5.45;;;4.20;;
51602;SDS011;37954;51.980;5.850;2023-07-28T17:28:21;6.95;;;4.10;;
51602;SDS011;37954;51.980;5.850;2023-07-28T17:32:33;4.00;;;3.50;;
51602;SDS011;37954;51.980;5.850;2023-07-28T17:36:45;3.95;;;3.58;;
51602;SDS011;37954;51.980;5.850;2023-07-28T17:40:56;4.85;;;3.45;;
51602;SDS011;37954;51.980;5.850;2023-07-28T17:45:08;4.28;;;3.05;;
51602;SDS011;37954;51.980;5.850;2023-07-28T17:49:20;2.90;;;2.70;;
51602;SDS011;37954;51.980;5.850;2023-07-28T17:53:32;4.43;;;2.83;;
51602;SDS011;37954;51.980;5.850;2023-07-28T17:57:44;5.10;;;3.15;;
51602;SDS011;37954;51.980;5.850;2023-07-28T18:01:55;2.85;;;2.65;;
51602;SDS011;37954;51.980;5.850;2023-07-28T18:06:07;3.67;;;2.85;;
51602;SDS011;37954;51.980;5.850;2023-07-28T18:10:22;5.07;;;3.10;;
51602;SDS011;37954;51.980;5.850;2023-07-28T18:14:34;4.60;;;3.35;;
51602;SDS011;37954;51.980;5.850;2023-07-28T18:18:45;3.72;;;3.00;;
51602;SDS011;37954;51.980;5.850;2023-07-28T18:22:57;2.95;;;2.60;;
51602;SDS011;37954;51.980;5.850;2023-07-28T18:27:09;3.80;;;3.00;;
51602;SDS011;37954;51.980;5.850;2023-07-28T18:31:21;3.83;;;2.97;;
51602;SDS011;37954;51.980;5.850;2023-07-28T18:35:33;3.15;;;2.72;;
51602;SDS011;37954;51.980;5.850;2023-07-28T18:39:44;2.35;;;2.15;;
51602;SDS011;37954;51.980;5.850;2023-07-28T18:43:56;2.50;;;2.30;;
51602;SDS011;37954;51.980;5.850;2023-07-28T18:48:08;3.47;;;2.55;;
51602;SDS011;37954;51.980;5.850;2023-07-28T18:52:20;2.83;;;2.63;;
51602;SDS011;37954;51.980;5.850;2023-07-28T18:56:32;3.72;;;2.83;;
51602;SDS011;37954;51.980;5.850;2023-07-28T19:00:44;3.25;;;2.70;;
51602;SDS011;37954;51.980;5.850;2023-07-28T19:04:56;3.33;;;2.80;;
51602;SDS011;37954;51.980;5.850;2023-07-28T19:09:07;6.38;;;3.03;;
51602;SDS011;37954;51.980;5.850;2023-07-28T19:13:20;3.75;;;3.00;;
51602;SDS011;37954;51.980;5.850;2023-07-28T19:17:32;3.15;;;2.85;;
51602;SDS011;37954;51.980;5.850;2023-07-28T19:21:44;4.45;;;3.22;;
51602;SDS011;37954;51.980;5.850;2023-07-28T19:25:57;3.20;;;2.90;;
51602;SDS011;37954;51.980;5.850;2023-07-28T19:30:09;4.68;;;3.17;;
51602;SDS011;37954;51.980;5.850;2023-07-28T19:34:22;3.40;;;2.78;;
51602;SDS011;37954;51.980;5.850;2023-07-28T19:38:33;3.35;;;3.05;;
51602;SDS011;37954;51.980;5.850;2023-07-28T19:42:45;3.08;;;2.47;;
51602;SDS011;37954;51.980;5.850;2023-07-28T19:46:57;3.13;;;2.42;;
51602;SDS011;37954;51.980;5.850;2023-07-28T19:51:09;6.20;;;2.70;;
51602;SDS011;37954;51.980;5.850;2023-07-28T19:55:23;3.20;;;2.85;;
51602;SDS011;37954;51.980;5.850;2023-07-28T19:59:35;3.88;;;3.22;;
51602;SDS011;37954;51.980;5.850;2023-07-28T20:03:47;2.40;;;2.20;;
51602;SDS011;37954;51.980;5.850;2023-07-28T20:07:59;4.57;;;2.65;;
51602;SDS011;37954;51.980;5.850;2023-07-28T20:12:11;3.63;;;2.90;;
51602;SDS011;37954;51.980;5.850;2023-07-28T20:16:23;2.75;;;2.55;;
51602;SDS011;37954;51.980;5.850;2023-07-28T20:20:36;3.50;;;2.85;;
51602;SDS011;37954;51.980;5.850;2023-07-28T20:24:48;3.38;;;3.00;;
51602;SDS011;37954;51.980;5.850;2023-07-28T20:29:01;4.03;;;2.70;;
51602;SDS011;37954;51.980;5.850;2023-07-28T20:33:13;2.88;;;2.65;;
51602;SDS011;37954;51.980;5.850;2023-07-28T20:37:25;2.58;;;2.38;;
51602;SDS011;37954;51.980;5.850;2023-07-28T20:41:37;5.50;;;3.03;;
51602;SDS011;37954;51.980;5.850;2023-07-28T20:45:49;6.55;;;3.42;;
51602;SDS011;37954;51.980;5.850;2023-07-28T20:50:00;5.45;;;4.00;;
51602;SDS011;37954;51.980;5.850;2023-07-28T20:54:12;3.85;;;3.25;;
51602;SDS011;37954;51.980;5.850;2023-07-28T20:58:24;4.55;;;3.45;;
51602;SDS011;37954;51.980;5.850;2023-07-28T21:02:36;3.58;;;3.22;;
51602;SDS011;37954;51.980;5.850;2023-07-28T21:06:49;3.53;;;3.22;;
51602;SDS011;37954;51.980;5.850;2023-07-28T21:11:01;6.10;;;3.22;;
51602;SDS011;37954;51.980;5.850;2023-07-28T21:15:13;3.50;;;3.17;;
51602;SDS011;37954;51.980;5.850;2023-07-28T21:19:25;4.05;;;3.20;;
51602;SDS011;37954;51.980;5.850;2023-07-28T21:23:37;4.00;;;3.30;;
51602;SDS011;37954;51.980;5.850;2023-07-28T21:27:49;3.42;;;3.13;;
51602;SDS011;37954;51.980;5.850;2023-07-28T21:32:01;3.42;;;3.13;;
51602;SDS011;37954;51.980;5.850;2023-07-28T21:36:13;3.42;;;3.13;;
51602;SDS011;37954;51.980;5.850;2023-07-28T21:40:25;3.60;;;2.72;;
51602;SDS011;37954;51.980;5.850;2023-07-28T21:44:37;4.25;;;3.33;;
51602;SDS011;37954;51.980;5.850;2023-07-28T21:48:57;3.55;;;3.20;;
51602;SDS011;37954;51.980;5.850;2023-07-28T21:53:08;5.70;;;4.20;;
51602;SDS011;37954;51.980;5.850;2023-07-28T21:57:20;6.18;;;4.38;;
51602;SDS011;37954;51.980;5.850;2023-07-28T22:01:32;5.75;;;4.43;;
51602;SDS011;37954;51.980;5.850;2023-07-28T22:05:44;5.95;;;4.50;;
51602;SDS011;37954;51.980;5.850;2023-07-28T22:09:56;6.25;;;3.63;;
51602;SDS011;37954;51.980;5.850;2023-07-28T22:14:07;4.13;;;3.58;;
51602;SDS011;37954;51.980;5.850;2023-07-28T22:18:19;4.65;;;3.42;;
51602;SDS011;37954;51.980;5.850;2023-07-28T22:22:31;3.92;;;3.53;;
51602;SDS011;37954;51.980;5.850;2023-07-28T22:26:44;3.95;;;3.53;;
51602;SDS011;37954;51.980;5.850;2023-07-28T22:30:56;5.32;;;4.40;;
51602;SDS011;37954;51.980;5.850;2023-07-28T22:35:08;6.75;;;4.85;;
51602;SDS011;37954;51.980;5.850;2023-07-28T22:39:20;5.90;;;4.95;;
51602;SDS011;37954;51.980;5.850;2023-07-28T22:43:31;5.18;;;4.75;;
51602;SDS011;37954;51.980;5.850;2023-07-28T22:47:43;5.85;;;4.93;;
51602;SDS011;37954;51.980;5.850;2023-07-28T22:51:55;6.18;;;5.30;;
51602;SDS011;37954;51.980;5.850;2023-07-28T22:56:07;7.88;;;5.50;;
51602;SDS011;37954;51.980;5.850;2023-07-28T23:00:19;6.80;;;4.88;;
51602;SDS011;37954;51.980;5.850;2023-07-28T23:04:34;8.07;;;5.03;;
51602;SDS011;37954;51.980;5.850;2023-07-28T23:08:46;5.57;;;4.75;;
51602;SDS011;37954;51.980;5.850;2023-07-28T23:12:58;5.95;;;5.18;;
51602;SDS011;37954;51.980;5.850;2023-07-28T23:17:10;6.63;;;5.22;;
51602;SDS011;37954;51.980;5.850;2023-07-28T23:21:22;6.68;;;5.43;;
51602;SDS011;37954;51.980;5.850;2023-07-28T23:25:33;7.47;;;5.50;;
51602;SDS011;37954;51.980;5.850;2023-07-28T23:29:45;5.50;;;4.97;;
51602;SDS011;37954;51.980;5.850;2023-07-28T23:33:57;6.82;;;5.55;;
51602;SDS011;37954;51.980;5.850;2023-07-28T23:38:09;5.55;;;4.80;;
51602;SDS011;37954;51.980;5.850;2023-07-28T23:42:20;5.25;;;4.75;;
51602;SDS011;37954;51.980;5.850;2023-07-28T23:46:32;6.32;;;5.15;;
51602;SDS011;37954;51.980;5.850;2023-07-28T23:50:44;7.18;;;5.10;;
51602;SDS011;37954;51.980;5.850;2023-07-28T23:54:56;6.00;;;5.05;;
51602;SDS011;37954;51.980;5.850;2023-07-28T23:59:08;7.32;;;5.72;;
